Time;durP1;ratioP1;P1;durP2;ratioP2;P2;SDS_P1;SDS_P2;PMS_P1;PMS_P2;Temp;Humidity;BMP_temperature;BMP_pressure;BME280_temperature;BME280_humidity;BME280_pressure;Samples;Min_cycle;Max_cycle;Signal;HPM_P1;HPM_P2
2021/05/30 00:00:21;;;;;;;3.60;3.30;;;;;;;13.84;64.33;97064.63;4984645;28;20503;-64
2021/05/30 00:02:47;;;;;;;2.90;2.70;;;;;;;13.77;64.67;97063.16;4976191;28;20430;-65
2021/05/30 00:05:13;;;;;;;4.30;3.17;;;;;;;13.80;64.66;97058.22;4986271;28;20205;-65
2021/05/30 00:07:38;;;;;;;2.80;2.60;;;;;;;13.71;65.06;97064.88;4984736;28;20552;-63
2021/05/30 00:10:05;;;;;;;2.63;2.43;;;;;;;13.63;65.06;97057.28;4986556;28;20490;-65
2021/05/30 00:12:31;;;;;;;4.13;3.53;;;;;;;13.69;64.96;97060.84;4982712;28;20178;-63
2021/05/30 00:14:56;;;;;;;3.60;2.73;;;;;;;13.68;65.37;97056.59;4976206;28;20405;-65
2021/05/30 00:17:21;;;;;;;5.87;3.23;;;;;;;13.58;64.45;97056.34;4976437;28;20213;-65
2021/05/30 00:19:47;;;;;;;2.70;2.50;;;;;;;13.39;65.51;97069.63;4980667;28;20177;-64
2021/05/30 00:22:12;;;;;;;3.03;2.73;;;;;;;13.38;66.10;97056.66;4982997;28;20174;-64
2021/05/30 00:24:38;;;;;;;2.77;2.57;;;;;;;13.39;65.89;97058.25;4992192;28;20289;-65
2021/05/30 00:27:04;;;;;;;4.00;2.53;;;;;;;13.33;66.16;97064.44;4980680;28;20182;-65
2021/05/30 00:29:30;;;;;;;3.83;2.57;;;;;;;13.34;65.77;97055.47;4983822;28;20182;-65
2021/05/30 00:31:56;;;;;;;2.97;2.77;;;;;;;13.40;65.54;97052.75;4995123;28;20416;-63
2021/05/30 00:34:21;;;;;;;3.30;3.10;;;;;;;13.36;65.52;97056.06;4988637;28;20210;-63
2021/05/30 00:36:47;;;;;;;2.80;2.60;;;;;;;13.32;65.70;97054.91;4976818;28;20217;-63
2021/05/30 00:39:12;;;;;;;3.27;3.07;;;;;;;13.31;66.22;97048.84;4979589;28;20244;-65
2021/05/30 00:41:37;;;;;;;7.93;3.50;;;;;;;13.26;65.92;97051.31;4994844;28;20667;-65
2021/05/30 00:44:22;;;;;;;9.20;3.20;;;;;;;13.29;65.98;97061.44;4992042;28;20731;-63
2021/05/30 00:46:48;;;;;;;20.33;3.73;;;;;;;13.27;65.41;97058.22;4975920;28;20515;-65
2021/05/30 00:49:13;;;;;;;7.83;3.03;;;;;;;13.14;66.11;97063.69;4987426;28;20513;-63
2021/05/30 00:51:39;;;;;;;29.60;5.17;;;;;;;13.05;66.17;97057.13;4957946;28;20181;-64
2021/05/30 00:54:05;;;;;;;11.90;3.00;;;;;;;13.00;66.30;97061.41;4977177;28;20233;-63
2021/05/30 00:56:30;;;;;;;5.13;2.60;;;;;;;12.93;66.76;97060.69;4995132;28;20412;-63
2021/05/30 00:58:56;;;;;;;9.60;3.20;;;;;;;12.91;66.80;97060.13;4994862;28;20408;-65
2021/05/30 01:01:21;;;;;;;10.63;3.50;;;;;;;12.94;66.46;97071.03;4975504;28;20268;-65
2021/05/30 01:03:46;;;;;;;3.10;2.47;;;;;;;12.96;65.95;97068.97;4987410;28;20212;-65
2021/05/30 01:06:12;;;;;;;5.10;2.87;;;;;;;12.98;65.75;97076.66;4985002;28;20202;-65
2021/05/30 01:08:37;;;;;;;2.63;2.40;;;;;;;12.99;66.05;97076.44;4986858;28;20182;-65
2021/05/30 01:11:05;;;;;;;10.20;3.00;;;;;;;12.91;66.16;97070.66;4994655;28;20177;-63
2021/05/30 01:13:32;;;;;;;5.60;2.37;;;;;;;12.82;65.78;97074.63;4983551;28;20205;-63
2021/05/30 01:15:58;;;;;;;10.10;2.83;;;;;;;12.80;65.33;97074.84;4975272;28;20484;-65
2021/05/30 01:18:25;;;;;;;8.97;2.90;;;;;;;12.81;64.88;97073.03;4986804;28;20428;-65
2021/05/30 01:20:53;;;;;;;7.00;2.47;;;;;;;12.76;65.11;97068.41;4985717;28;20197;-63
2021/05/30 01:23:19;;;;;;;6.73;2.57;;;;;;;12.67;66.47;97068.91;4983389;28;20456;-63
2021/05/30 01:25:46;;;;;;;5.93;2.50;;;;;;;12.65;66.27;97071.78;4994382;28;20456;-65
2021/05/30 01:28:12;;;;;;;7.37;2.70;;;;;;;12.62;66.51;97066.97;4992837;28;20771;-65
2021/05/30 01:30:38;;;;;;;7.63;2.57;;;;;;;12.61;66.53;97067.19;4992742;28;20431;-65
2021/05/30 01:33:04;;;;;;;7.23;2.90;;;;;;;12.57;66.36;97060.75;4993846;28;20801;-65
2021/05/30 01:35:30;;;;;;;7.43;2.80;;;;;;;12.57;66.98;97066.00;4992705;28;20174;-65
2021/05/30 01:37:55;;;;;;;7.13;2.67;;;;;;;12.52;66.57;97065.88;4991530;28;20436;-65
2021/05/30 01:40:22;;;;;;;6.83;2.73;;;;;;;12.39;67.58;97070.25;4976555;28;20213;-65
2021/05/30 01:42:49;;;;;;;5.27;2.47;;;;;;;12.30;67.51;97070.78;4993756;28;20197;-65
2021/05/30 01:45:16;;;;;;;2.40;2.30;;;;;;;12.22;67.78;97071.84;4993324;28;21040;-64
2021/05/30 01:47:42;;;;;;;4.33;2.47;;;;;;;11.99;69.08;97074.28;4989894;28;20432;-64
2021/05/30 01:50:15;;;;;;;2.20;2.10;;;;;;;11.97;69.22;97076.34;4975797;28;20421;-65
2021/05/30 01:52:41;;;;;;;3.40;2.47;;;;;;;12.01;69.36;97080.16;4974558;28;20516;-61
2021/05/30 01:55:16;;;;;;;2.63;2.03;;;;;;;12.11;68.03;97075.22;4976066;28;20425;-64
2021/05/30 01:57:47;;;;;;;5.53;2.10;;;;;;;12.11;68.69;97077.03;4957621;28;20958;-64
2021/05/30 02:00:14;;;;;;;2.50;2.30;;;;;;;12.12;67.69;97079.44;4992159;28;20433;-64
2021/05/30 02:02:39;;;;;;;4.43;2.50;;;;;;;12.16;68.10;97075.34;4993732;28;20443;-64
2021/05/30 02:05:06;;;;;;;2.60;2.40;;;;;;;12.19;68.07;97080.19;4992220;28;20830;-64
2021/05/30 02:07:35;;;;;;;8.40;3.07;;;;;;;12.24;67.69;97074.28;4994113;28;20195;-61
2021/05/30 02:10:02;;;;;;;3.73;2.53;;;;;;;12.24;68.38;97072.44;4959636;28;20425;-61
2021/05/30 02:12:28;;;;;;;7.03;2.90;;;;;;;12.27;67.89;97074.63;4984658;28;20428;-62
2021/05/30 02:14:56;;;;;;;5.17;3.13;;;;;;;12.30;68.00;97070.78;4992250;28;20478;-62
2021/05/30 02:17:23;;;;;;;2.70;2.50;;;;;;;12.36;67.77;97078.59;4993414;28;20177;-62
2021/05/30 02:19:49;;;;;;;3.40;2.63;;;;;;;12.43;67.72;97074.06;4993142;28;20420;-63
2021/05/30 02:22:14;;;;;;;3.20;3.00;;;;;;;12.46;67.91;97072.00;4988830;28;20425;-64
2021/05/30 02:24:42;;;;;;;2.40;2.30;;;;;;;12.33;68.74;97070.31;4990324;28;20198;-61
2021/05/30 02:27:07;;;;;;;2.93;2.70;;;;;;;12.40;68.53;97073.69;4962393;28;20576;-64
2021/05/30 02:29:35;;;;;;;2.53;2.30;;;;;;;12.46;68.76;97077.28;4975356;28;20507;-64
2021/05/30 02:32:03;;;;;;;2.73;2.53;;;;;;;12.41;68.95;97076.09;4978975;28;20325;-64
2021/05/30 02:34:29;;;;;;;2.77;2.57;;;;;;;12.49;68.86;97077.66;4978275;28;20429;-64
2021/05/30 02:36:54;;;;;;;2.97;2.60;;;;;;;12.46;69.01;97080.72;4993386;28;20763;-61
2021/05/30 02:39:19;;;;;;;4.93;3.13;;;;;;;12.49;68.88;97079.47;4996029;28;20600;-61
2021/05/30 02:41:45;;;;;;;3.40;3.10;;;;;;;12.45;69.16;97079.09;4981287;28;20188;-64
2021/05/30 02:44:10;;;;;;;3.07;2.77;;;;;;;12.44;68.23;97072.25;4979029;28;20198;-64
2021/05/30 02:46:36;;;;;;;2.80;2.60;;;;;;;12.43;68.63;97080.38;4978209;28;20225;-61
2021/05/30 02:49:01;;;;;;;3.23;2.87;;;;;;;12.40;68.65;97084.25;4984329;28;20587;-64
2021/05/30 02:51:26;;;;;;;3.87;3.10;;;;;;;12.33;68.70;97084.31;4997212;28;20170;-63
2021/05/30 02:53:52;;;;;;;2.93;2.63;;;;;;;12.43;68.37;97085.63;4974852;28;20534;-61
2021/05/30 02:56:17;;;;;;;4.73;2.50;;;;;;;12.43;67.59;97087.25;4991829;28;20177;-64
2021/05/30 02:58:42;;;;;;;2.83;2.60;;;;;;;12.37;67.39;97088.09;4995502;28;20186;-64
2021/05/30 03:01:08;;;;;;;2.93;2.73;;;;;;;12.37;67.79;97087.31;4997224;28;20165;-61
2021/05/30 03:03:33;;;;;;;2.70;2.50;;;;;;;12.27;68.55;97085.19;4980494;28;20281;-61
2021/05/30 03:05:58;;;;;;;2.53;2.33;;;;;;;12.27;69.11;97079.09;4977940;28;20213;-64
2021/05/30 03:08:24;;;;;;;2.53;2.33;;;;;;;12.30;68.95;97092.63;4977651;28;20182;-61
2021/05/30 03:10:49;;;;;;;2.70;2.50;;;;;;;12.33;68.80;97084.31;4980010;28;20182;-64
2021/05/30 03:13:15;;;;;;;3.23;3.03;;;;;;;12.31;68.47;97091.63;4990136;28;20208;-64
2021/05/30 03:15:40;;;;;;;3.33;3.00;;;;;;;12.18;69.57;97097.03;4997034;28;20228;-61
2021/05/30 03:18:07;;;;;;;2.90;2.70;;;;;;;12.23;69.29;97093.72;4981574;28;20547;-64
2021/05/30 03:20:32;;;;;;;3.17;2.97;;;;;;;12.33;68.71;97094.84;4978690;28;20206;-61
2021/05/30 03:22:58;;;;;;;4.03;3.50;;;;;;;12.31;68.83;97090.81;4996616;28;20483;-64
2021/05/30 03:25:23;;;;;;;2.93;2.73;;;;;;;12.25;68.91;97087.22;4971542;28;20717;-63
2021/05/30 03:27:49;;;;;;;3.60;3.30;;;;;;;12.29;68.60;97084.97;4996869;28;20173;-61
2021/05/30 03:30:16;;;;;;;3.30;3.00;;;;;;;12.25;68.88;97094.31;4990640;28;20182;-61
2021/05/30 03:32:41;;;;;;;3.20;3.00;;;;;;;12.10;69.68;97093.88;4976890;28;20903;-63
2021/05/30 03:35:07;;;;;;;4.30;2.87;;;;;;;12.18;69.68;97089.13;4981035;28;20424;-64
2021/05/30 03:37:33;;;;;;;2.97;2.77;;;;;;;12.10;69.67;97097.28;4996768;28;20185;-64
2021/05/30 03:40:02;;;;;;;3.30;3.00;;;;;;;12.18;70.02;97091.75;4987264;28;20849;-62
2021/05/30 03:42:29;;;;;;;3.73;3.13;;;;;;;12.18;69.54;97091.75;4989571;28;20208;-64
2021/05/30 03:44:59;;;;;;;3.60;3.30;;;;;;;12.24;69.61;97095.34;4982646;28;20539;-61
2021/05/30 03:47:25;;;;;;;3.73;3.33;;;;;;;12.30;70.05;97094.50;4996486;28;20405;-61
2021/05/30 03:49:50;;;;;;;3.60;3.13;;;;;;;12.26;69.81;97090.66;4991691;28;20421;-61
2021/05/30 03:52:16;;;;;;;3.10;2.90;;;;;;;12.13;70.40;97096.06;4976620;28;20896;-61
2021/05/30 03:54:41;;;;;;;4.20;3.10;;;;;;;12.14;70.23;97093.19;4977927;28;20210;-64
2021/05/30 03:57:08;;;;;;;3.13;2.93;;;;;;;12.19;69.65;97095.19;4981267;28;20201;-61
2021/05/30 03:59:33;;;;;;;3.50;3.20;;;;;;;12.19;70.14;97095.97;4995557;28;20243;-64
2021/05/30 04:01:59;;;;;;;3.30;3.00;;;;;;;12.22;69.88;97090.31;4995827;28;20416;-64
2021/05/30 04:04:24;;;;;;;4.27;3.67;;;;;;;12.21;70.39;97096.56;4980896;28;20210;-64
2021/05/30 04:06:49;;;;;;;3.30;2.93;;;;;;;12.29;69.53;97093.69;4976799;28;20206;-60
2021/05/30 04:09:15;;;;;;;3.37;3.07;;;;;;;12.29;69.92;97100.75;4981931;28;20182;-63
2021/05/30 04:11:40;;;;;;;3.67;3.20;;;;;;;12.32;69.60;97101.13;4976241;28;20181;-61
2021/05/30 04:14:05;;;;;;;4.33;3.60;;;;;;;12.28;70.42;97097.31;4976338;28;20238;-64
2021/05/30 04:16:31;;;;;;;3.80;3.50;;;;;;;12.39;70.17;97098.44;4976542;28;20177;-61
2021/05/30 04:18:56;;;;;;;4.20;3.80;;;;;;;12.41;70.73;97102.47;4990290;28;20191;-64
2021/05/30 04:21:22;;;;;;;3.60;3.20;;;;;;;12.32;71.29;97097.69;4991480;28;20604;-64
2021/05/30 04:23:47;;;;;;;3.33;3.13;;;;;;;12.39;71.27;97093.19;4978020;28;20205;-63
2021/05/30 04:26:12;;;;;;;4.00;3.50;;;;;;;12.47;71.03;97100.78;4995504;28;20243;-64
2021/05/30 04:28:39;;;;;;;3.27;2.97;;;;;;;12.45;71.15;97094.91;4995693;28;20536;-64
2021/05/30 04:31:04;;;;;;;4.13;3.53;;;;;;;12.34;72.29;97108.81;4977752;28;20538;-64
2021/05/30 04:33:30;;;;;;;3.70;3.40;;;;;;;12.37;72.51;97101.28;4995257;28;20437;-64
2021/05/30 04:35:56;;;;;;;4.63;4.00;;;;;;;12.49;72.09;97096.09;4994380;28;20185;-61
2021/05/30 04:38:21;;;;;;;4.90;4.40;;;;;;;12.57;71.66;97095.81;4991826;28;20656;-63
2021/05/30 04:40:48;;;;;;;4.47;4.07;;;;;;;12.53;72.56;97102.56;4976205;28;20205;-61
2021/05/30 04:43:14;;;;;;;4.40;4.03;;;;;;;12.56;72.93;97102.09;4994951;28;20194;-61
2021/05/30 04:45:40;;;;;;;4.20;3.90;;;;;;;12.63;72.60;97107.31;4984359;28;20453;-64
2021/05/30 04:48:05;;;;;;;4.37;4.03;;;;;;;12.67;72.60;97105.84;4975962;28;20420;-64
2021/05/30 04:50:31;;;;;;;4.87;4.40;;;;;;;12.74;72.51;97101.28;4988067;28;20182;-61
2021/05/30 04:52:56;;;;;;;4.27;3.93;;;;;;;12.81;71.99;97094.91;4994335;28;20320;-60
2021/05/30 04:55:21;;;;;;;4.27;3.90;;;;;;;12.88;71.93;97098.28;4976794;28;20210;-64
2021/05/30 04:57:47;;;;;;;4.10;3.80;;;;;;;12.94;72.27;97096.59;4975365;28;20170;-64
2021/05/30 05:00:14;;;;;;;6.87;5.13;;;;;;;13.03;72.01;97100.56;4978737;28;20174;-64
2021/05/30 05:02:40;;;;;;;5.23;4.47;;;;;;;13.04;72.37;97096.91;4975292;28;20188;-64
2021/05/30 05:05:07;;;;;;;4.30;3.90;;;;;;;13.13;72.27;97092.94;4975338;28;20468;-64
2021/05/30 05:07:32;;;;;;;5.30;4.80;;;;;;;13.21;71.77;97097.88;4975513;28;20178;-63
2021/05/30 05:09:58;;;;;;;4.30;3.90;;;;;;;13.24;72.03;97094.81;4985348;28;20439;-64
2021/05/30 05:12:23;;;;;;;4.60;4.20;;;;;;;13.28;71.61;97093.31;4992632;28;20181;-64
2021/05/30 05:14:48;;;;;;;4.80;3.87;;;;;;;13.32;71.27;97097.94;4986511;28;20178;-60
2021/05/30 05:17:14;;;;;;;6.23;4.33;;;;;;;13.35;71.69;97100.13;4977891;28;20182;-64
2021/05/30 05:19:40;;;;;;;4.07;3.77;;;;;;;13.39;71.54;97095.19;4994846;28;20198;-61
2021/05/30 05:22:05;;;;;;;4.63;4.23;;;;;;;13.39;71.25;97103.13;4993481;28;20165;-61
2021/05/30 05:24:30;;;;;;;5.13;4.20;;;;;;;13.47;70.89;97100.16;4991211;28;20232;-63
2021/05/30 05:26:56;;;;;;;5.23;4.10;;;;;;;13.54;71.07;97102.72;4991253;28;20178;-64
2021/05/30 05:29:21;;;;;;;21.90;5.87;;;;;;;13.52;70.09;97102.13;4974877;28;20719;-64
2021/05/30 05:31:47;;;;;;;9.17;4.50;;;;;;;13.59;70.66;97101.00;4976025;28;20178;-64
2021/05/30 05:34:12;;;;;;;4.40;4.03;;;;;;;13.65;70.23;97100.09;4994496;28;20216;-61
2021/05/30 05:36:37;;;;;;;4.97;4.47;;;;;;;13.60;70.15;97102.63;4994646;28;20165;-61
2021/05/30 05:39:03;;;;;;;6.67;3.57;;;;;;;13.71;70.55;97098.41;4977856;28;20265;-64
2021/05/30 05:41:29;;;;;;;6.93;3.87;;;;;;;13.77;70.10;97103.56;4990484;28;20192;-61
2021/05/30 05:43:55;;;;;;;4.97;4.00;;;;;;;13.83;70.07;97099.22;4994171;28;20433;-61
2021/05/30 05:46:20;;;;;;;4.40;4.00;;;;;;;13.87;70.17;97093.25;4982752;28;20548;-64
2021/05/30 05:48:46;;;;;;;4.00;3.70;;;;;;;13.95;69.26;97100.06;4974979;28;20536;-64
2021/05/30 05:51:11;;;;;;;3.77;3.30;;;;;;;14.03;69.66;97099.69;4984210;28;20254;-64
2021/05/30 05:53:36;;;;;;;4.37;3.47;;;;;;;14.09;69.44;97101.44;4984231;28;20285;-61
2021/05/30 05:56:02;;;;;;;8.57;4.13;;;;;;;14.13;69.11;97097.31;4986022;28;20169;-61
2021/05/30 05:58:27;;;;;;;4.57;4.10;;;;;;;14.19;68.19;97102.47;4994160;28;20227;-64
2021/05/30 06:00:53;;;;;;;4.00;3.70;;;;;;;14.20;68.62;97098.00;4983843;28;20644;-64
2021/05/30 06:03:18;;;;;;;4.10;3.80;;;;;;;14.30;68.36;97101.69;4974261;28;20193;-64
2021/05/30 06:05:43;;;;;;;4.17;3.73;;;;;;;14.35;68.10;97099.16;4981864;28;20207;-61
2021/05/30 06:08:09;;;;;;;7.97;4.20;;;;;;;14.42;66.82;97101.72;4987876;28;20185;-63
2021/05/30 06:10:34;;;;;;;10.63;4.50;;;;;;;14.52;67.38;97096.63;4991494;28;20308;-63
2021/05/30 06:13:03;;;;;;;10.03;4.97;;;;;;;14.57;67.26;97102.00;4974380;28;20249;-63
2021/05/30 06:15:29;;;;;;;5.07;4.47;;;;;;;14.66;67.46;97105.09;4994071;28;20173;-61
2021/05/30 06:18:11;;;;;;;4.83;3.90;;;;;;;14.62;67.35;97103.97;4982262;28;20434;-64
2021/05/30 06:20:37;;;;;;;5.80;3.73;;;;;;;14.65;67.08;97108.78;4974691;28;20174;-63
2021/05/30 06:23:03;;;;;;;12.83;4.80;;;;;;;14.71;66.81;97102.59;4979001;28;20447;-64
2021/05/30 06:25:29;;;;;;;7.33;4.60;;;;;;;14.71;68.03;97110.53;4993961;28;20459;-61
2021/05/30 06:27:56;;;;;;;3.77;3.47;;;;;;;14.82;67.06;97107.06;4983282;28;20429;-64
2021/05/30 06:30:27;;;;;;;3.77;3.50;;;;;;;14.95;66.66;97110.22;4983025;28;20182;-64
2021/05/30 06:32:53;;;;;;;3.60;3.30;;;;;;;15.05;66.44;97114.91;4991651;28;20455;-64
2021/05/30 06:35:19;;;;;;;5.53;4.10;;;;;;;15.14;66.00;97110.88;4993887;28;20460;-63
2021/05/30 06:37:44;;;;;;;4.30;3.90;;;;;;;15.17;65.36;97100.59;4974683;28;20420;-64
2021/05/30 06:40:11;;;;;;;3.97;3.67;;;;;;;15.08;62.59;97101.22;4993763;28;20413;-64
2021/05/30 06:42:36;;;;;;;4.80;3.63;;;;;;;15.21;62.43;97107.03;4981391;28;20265;-61
2021/05/30 06:45:02;;;;;;;3.93;3.63;;;;;;;15.30;61.87;97104.81;4981797;28;20544;-64
2021/05/30 06:47:27;;;;;;;4.33;3.80;;;;;;;15.41;62.35;97099.50;4983682;28;20170;-64
2021/05/30 06:49:53;;;;;;;7.20;3.67;;;;;;;15.53;62.14;97102.09;4976398;28;20417;-61
2021/05/30 06:52:18;;;;;;;4.23;3.93;;;;;;;15.57;61.38;97095.28;4993293;28;20205;-64
2021/05/30 06:54:43;;;;;;;6.37;3.50;;;;;;;15.52;61.12;97107.63;4975618;28;20207;-61
2021/05/30 06:57:09;;;;;;;4.00;3.63;;;;;;;15.52;61.36;97097.84;4993632;28;20580;-64
2021/05/30 06:59:35;;;;;;;4.33;3.63;;;;;;;15.53;61.30;97096.78;4993778;28;20220;-64
2021/05/30 07:02:00;;;;;;;6.27;4.40;;;;;;;15.55;61.47;97096.53;4974465;28;20201;-64
2021/05/30 07:04:27;;;;;;;3.53;3.23;;;;;;;15.65;60.72;97099.38;4974865;28;20951;-61
2021/05/30 07:06:53;;;;;;;3.90;3.60;;;;;;;15.49;60.12;97106.25;4974426;28;20202;-64
2021/05/30 07:09:18;;;;;;;3.73;3.40;;;;;;;15.63;60.28;97102.28;4988842;28;20845;-64
2021/05/30 07:11:43;;;;;;;6.13;3.70;;;;;;;15.70;58.57;97108.22;4993260;28;20417;-61
2021/05/30 07:14:09;;;;;;;3.53;3.17;;;;;;;15.75;58.43;97104.84;4984183;28;20194;-64
2021/05/30 07:16:34;;;;;;;4.47;3.23;;;;;;;15.73;58.70;97104.28;4975989;28;20177;-61
2021/05/30 07:19:00;;;;;;;6.90;3.00;;;;;;;15.61;55.10;97107.00;4978410;28;20205;-63
2021/05/30 07:21:25;;;;;;;5.40;3.40;;;;;;;15.82;55.61;97108.13;4983511;28;20178;-62
2021/05/30 07:23:50;;;;;;;7.90;4.07;;;;;;;15.83;54.71;97110.56;4987295;28;20225;-63
2021/05/30 07:26:16;;;;;;;4.20;3.30;;;;;;;15.71;53.16;97112.47;4977162;28;20198;-64
2021/05/30 07:28:44;;;;;;;10.33;3.50;;;;;;;15.68;52.86;97112.97;4962898;28;20177;-63
2021/05/30 07:31:10;;;;;;;3.30;2.97;;;;;;;15.64;54.09;97117.13;4995230;28;20636;-64
2021/05/30 07:33:36;;;;;;;5.10;3.10;;;;;;;15.72;51.69;97114.09;4991938;28;20448;-63
2021/05/30 07:36:01;;;;;;;3.23;3.00;;;;;;;15.91;52.29;97112.81;4981072;28;20161;-63
2021/05/30 07:38:27;;;;;;;3.00;2.80;;;;;;;16.06;53.19;97109.59;4996713;28;20165;-64
2021/05/30 07:40:52;;;;;;;3.40;3.10;;;;;;;16.17;55.33;97112.19;4996744;28;20165;-61
2021/05/30 07:43:18;;;;;;;6.03;3.47;;;;;;;16.39;54.50;97113.06;4995739;28;20185;-62
2021/05/30 07:45:43;;;;;;;3.40;3.10;;;;;;;16.58;53.83;97108.28;4977273;28;20197;-60
2021/05/30 07:48:08;;;;;;;4.33;3.07;;;;;;;16.62;54.68;97105.94;4976693;28;20173;-63
2021/05/30 07:50:35;;;;;;;2.63;2.50;;;;;;;16.65;53.78;97108.13;4976920;28;20173;-62
2021/05/30 07:53:01;;;;;;;5.63;3.80;;;;;;;16.78;53.60;97103.25;4985978;28;20630;-62
2021/05/30 07:55:27;;;;;;;8.63;4.30;;;;;;;16.88;51.95;97103.41;4980511;28;20517;-62
2021/05/30 07:57:52;;;;;;;3.97;3.67;;;;;;;16.85;53.35;97111.84;4993212;28;20500;-62
2021/05/30 08:00:18;;;;;;;3.70;3.40;;;;;;;16.86;56.39;97115.28;4996350;28;20654;-65
2021/05/30 08:02:45;;;;;;;4.40;4.00;;;;;;;17.06;54.33;97115.56;4981796;28;20216;-64
2021/05/30 08:05:13;;;;;;;4.10;3.80;;;;;;;17.23;53.49;97118.91;4976458;28;20463;-63
2021/05/30 08:07:39;;;;;;;3.80;3.50;;;;;;;17.38;54.55;97116.44;4981890;28;20445;-65
2021/05/30 08:10:06;;;;;;;3.77;3.47;;;;;;;17.51;50.24;97113.44;4976402;28;20445;-64
2021/05/30 08:12:32;;;;;;;4.40;3.27;;;;;;;17.52;50.04;97108.91;4977097;28;20185;-63
2021/05/30 08:14:57;;;;;;;4.10;3.77;;;;;;;17.66;51.08;97105.63;4976671;28;20412;-65
2021/05/30 08:17:23;;;;;;;3.50;3.20;;;;;;;17.83;49.54;97111.59;4978316;28;20417;-63
2021/05/30 08:19:49;;;;;;;3.33;3.03;;;;;;;17.86;49.74;97116.44;4976377;28;20680;-63
2021/05/30 08:22:15;;;;;;;3.40;3.20;;;;;;;17.83;50.14;97116.09;4992926;28;20532;-64
2021/05/30 08:24:41;;;;;;;4.60;3.43;;;;;;;17.80;50.27;97112.13;4982747;28;20490;-65
2021/05/30 08:27:07;;;;;;;3.30;3.00;;;;;;;17.82;50.99;97107.34;4991398;28;20177;-65
2021/05/30 08:29:33;;;;;;;3.50;3.30;;;;;;;17.91;49.27;97116.47;4975968;28;20410;-63
2021/05/30 08:31:59;;;;;;;3.90;3.60;;;;;;;18.04;49.25;97108.06;4976344;28;20424;-63
2021/05/30 08:34:25;;;;;;;3.27;3.07;;;;;;;18.07;46.33;97118.19;4995542;28;20607;-63
2021/05/30 08:36:51;;;;;;;2.70;2.57;;;;;;;18.26;46.90;97115.97;4995772;28;20204;-63
2021/05/30 08:39:17;;;;;;;2.63;2.43;;;;;;;18.53;45.07;97105.25;4995542;28;20970;-63
2021/05/30 08:41:43;;;;;;;15.23;6.53;;;;;;;18.71;43.12;97110.94;4993730;28;20409;-62
2021/05/30 08:44:10;;;;;;;3.13;2.93;;;;;;;18.90;43.29;97112.09;4990150;28;20444;-63
2021/05/30 08:46:35;;;;;;;3.03;2.83;;;;;;;18.81;42.79;97103.00;4973241;28;20221;-63
2021/05/30 08:49:01;;;;;;;3.10;2.80;;;;;;;18.78;41.51;97108.84;4973478;28;20529;-62
2021/05/30 08:51:27;;;;;;;3.30;3.00;;;;;;;19.04;39.38;97104.44;4972127;28;20257;-63
2021/05/30 08:53:53;;;;;;;3.73;2.73;;;;;;;19.00;41.18;97103.34;4972030;28;20221;-63
2021/05/30 08:56:19;;;;;;;2.90;2.40;;;;;;;19.33;39.96;97105.66;4972694;28;20425;-63
2021/05/30 08:58:47;;;;;;;4.60;2.90;;;;;;;19.52;38.62;97097.94;4980356;28;20721;-63
2021/05/30 09:01:23;;;;;;;3.07;2.87;;;;;;;19.46;40.46;97116.59;4991880;28;20413;-63
2021/05/30 09:04:06;;;;;;;2.83;2.63;;;;;;;19.43;38.92;97109.13;4981884;28;20437;-63
2021/05/30 09:06:44;;;;;;;3.47;2.40;;;;;;;19.55;37.92;97108.88;4976612;28;20562;-63
2021/05/30 09:09:11;;;;;;;4.10;2.90;;;;;;;19.74;38.31;97094.00;4991445;28;20404;-62
2021/05/30 09:11:39;;;;;;;3.33;3.03;;;;;;;19.74;37.85;97112.66;4989159;28;20985;-63
2021/05/30 09:14:08;;;;;;;3.07;2.87;;;;;;;19.78;37.44;97105.75;4987155;28;20444;-62
2021/05/30 09:17:10;;;;;;;2.70;2.50;;;;;;;20.01;38.10;97104.41;4980547;28;20753;-63
2021/05/30 09:19:44;;;;;;;3.00;2.50;;;;;;;20.20;38.63;97110.84;4950001;28;20435;-62
2021/05/30 09:22:22;;;;;;;2.50;2.30;;;;;;;20.18;37.55;97113.78;4989146;28;20428;-62
2021/05/30 09:24:48;;;;;;;6.67;2.80;;;;;;;20.19;35.67;97104.72;4989515;28;20421;-62
2021/05/30 09:27:13;;;;;;;2.43;2.23;;;;;;;20.31;37.10;97105.22;4982013;28;20500;-63
2021/05/30 09:29:39;;;;;;;5.43;2.87;;;;;;;20.25;38.04;97102.84;4984121;28;20182;-62
2021/05/30 09:32:05;;;;;;;2.63;2.43;;;;;;;20.28;36.34;97102.28;4971386;28;20934;-62
2021/05/30 09:34:38;;;;;;;4.37;2.50;;;;;;;20.29;37.54;97104.69;4976779;28;20201;-62
2021/05/30 09:37:06;;;;;;;3.33;3.03;;;;;;;20.42;37.48;97098.00;4989300;28;20417;-62
2021/05/30 09:39:42;;;;;;;3.10;2.83;;;;;;;20.79;37.38;97089.63;4989686;28;20919;-62
2021/05/30 09:42:36;;;;;;;2.77;2.57;;;;;;;20.70;40.27;97093.94;4990226;28;20416;-63
2021/05/30 09:45:03;;;;;;;2.63;2.37;;;;;;;20.91;38.44;97100.81;4988380;28;20532;-63
2021/05/30 09:47:38;;;;;;;3.23;3.03;;;;;;;20.94;36.96;97097.63;4990902;28;21002;-63
2021/05/30 09:50:06;;;;;;;3.00;2.80;;;;;;;20.98;37.66;97101.34;4989292;28;20795;-63
2021/05/30 09:52:36;;;;;;;7.20;3.30;;;;;;;21.27;37.50;97095.09;4990367;28;20412;-63
2021/05/30 09:55:15;;;;;;;4.63;3.10;;;;;;;21.36;39.03;97093.44;4979904;28;20428;-60
2021/05/30 09:57:41;;;;;;;2.83;2.50;;;;;;;21.03;39.45;97104.03;4979540;28;20429;-61
2021/05/30 10:00:26;;;;;;;3.53;3.23;;;;;;;20.88;39.63;97099.50;4981181;28;20478;-63
2021/05/30 10:02:53;;;;;;;3.33;2.93;;;;;;;20.95;39.79;97109.88;4989973;28;20247;-63
2021/05/30 10:05:19;;;;;;;3.40;3.10;;;;;;;20.83;39.90;97104.06;4971081;28;20856;-64
2021/05/30 10:07:44;;;;;;;3.57;3.27;;;;;;;20.94;38.39;97101.09;4990038;28;20533;-64
2021/05/30 10:10:10;;;;;;;3.47;3.27;;;;;;;21.04;37.79;97108.28;4980795;28;20193;-64
2021/05/30 10:12:35;;;;;;;4.67;3.03;;;;;;;21.04;39.60;97105.63;4977458;28;20188;-64
2021/05/30 10:15:01;;;;;;;3.53;3.20;;;;;;;21.22;37.78;97097.78;4984830;28;20166;-61
2021/05/30 10:17:30;;;;;;;3.10;2.90;;;;;;;21.52;38.05;97102.97;4987229;28;20200;-64
2021/05/30 10:19:58;;;;;;;3.40;3.17;;;;;;;21.58;36.00;97100.28;4986654;28;20173;-64
2021/05/30 10:22:24;;;;;;;3.40;3.20;;;;;;;21.58;37.20;97101.06;4970546;28;20433;-64
2021/05/30 10:24:49;;;;;;;4.03;3.30;;;;;;;21.71;37.96;97096.97;4981189;28;20425;-64
2021/05/30 10:27:19;;;;;;;3.73;3.20;;;;;;;21.75;36.58;97098.00;4990333;28;20295;-61
2021/05/30 10:30:15;;;;;;;3.83;3.53;;;;;;;21.69;36.56;97091.91;4980587;28;20269;-62
2021/05/30 10:32:43;;;;;;;2.97;2.77;;;;;;;21.71;37.10;97080.91;4976952;28;20413;-62
2021/05/30 10:35:09;;;;;;;3.57;3.27;;;;;;;21.67;37.91;97091.38;4972334;28;20402;-62
2021/05/30 10:37:45;;;;;;;2.90;2.70;;;;;;;21.63;36.42;97093.03;4988447;28;20553;-62
2021/05/30 10:40:22;;;;;;;3.40;3.10;;;;;;;21.40;35.79;97091.81;4970885;28;20182;-62
2021/05/30 10:43:10;;;;;;;3.03;2.83;;;;;;;21.52;36.32;97079.97;4972828;28;20444;-61
2021/05/30 10:45:42;;;;;;;2.93;2.73;;;;;;;21.80;37.16;97087.28;4987886;28;20470;-61
2021/05/30 10:48:07;;;;;;;2.87;2.70;;;;;;;21.83;37.13;97087.53;4973365;28;20425;-66
2021/05/30 10:50:36;;;;;;;3.20;2.90;;;;;;;21.76;36.70;97089.69;4973177;28;20461;-66
2021/05/30 10:53:01;;;;;;;3.10;2.80;;;;;;;21.87;37.18;97093.16;4993322;28;20212;-65
2021/05/30 10:55:32;;;;;;;3.03;2.83;;;;;;;21.87;34.76;97091.25;4992934;28;20412;-63
2021/05/30 10:57:58;;;;;;;3.10;2.90;;;;;;;22.34;35.61;97095.94;4994045;28;20235;-67
2021/05/30 11:00:23;;;;;;;3.60;2.90;;;;;;;22.41;36.48;97093.78;4990058;28;20425;-66
2021/05/30 11:03:01;;;;;;;3.00;2.80;;;;;;;22.57;36.34;97091.75;4966327;28;20440;-65
2021/05/30 11:05:44;;;;;;;3.00;2.80;;;;;;;22.73;35.61;97077.94;4979505;28;20684;-65
2021/05/30 11:08:34;;;;;;;3.63;3.27;;;;;;;22.98;33.99;97077.63;4974349;28;20500;-65
2021/05/30 11:11:11;;;;;;;3.40;3.20;;;;;;;22.85;34.54;97075.63;4975254;28;20804;-64
2021/05/30 11:13:53;;;;;;;2.87;2.67;;;;;;;22.35;33.08;97068.09;4973798;28;20437;-65
2021/05/30 11:16:21;;;;;;;3.60;3.00;;;;;;;22.37;34.69;97072.06;4984589;28;20424;-64
2021/05/30 11:19:08;;;;;;;3.00;2.80;;;;;;;22.35;33.77;97066.22;4977158;28;20440;-65
2021/05/30 11:21:37;;;;;;;3.10;2.80;;;;;;;22.28;33.61;97073.78;4974748;28;20429;-65
2021/05/30 11:24:07;;;;;;;3.00;2.70;;;;;;;22.51;34.89;97082.94;4976585;28;20441;-64
2021/05/30 11:26:33;;;;;;;3.80;3.50;;;;;;;22.90;33.21;97064.84;4974459;28;20460;-62
2021/05/30 11:29:00;;;;;;;2.33;2.20;;;;;;;22.86;32.96;97057.66;4974788;28;20871;-63
2021/05/30 11:31:26;;;;;;;2.90;2.67;;;;;;;22.86;34.74;97063.03;4973150;28;21031;-72
2021/05/30 11:34:18;;;;;;;2.97;2.73;;;;;;;22.99;34.84;97065.03;4992134;28;20451;-64